Time;durP1;ratioP1;P1;durP2;ratioP2;P2;SDS_P1;SDS_P2;PMS_P1;PMS_P2;Temp;Humidity;BMP_temperature;BMP_pressure;BME280_temperature;BME280_humidity;BME280_pressure;Samples;Min_cycle;Max_cycle;Signal;HPM_P1;HPM_P2
2022/07/02 00:00:49;;;;;;;;;;;14.70;99.90;;;;;;5004550;28;19932;-81
2022/07/02 00:03:15;;;;;;;;;;;14.70;99.90;;;;;;5028812;28;19963;-81
2022/07/02 00:05:47;;;;;;;;;;;14.60;99.90;;;;;;5014765;28;19940;-81
2022/07/02 00:08:14;;;;;;;;;;;14.70;99.90;;;;;;5001859;28;19980;-81
2022/07/02 00:10:40;;;;;;;;;;;14.60;99.90;;;;;;5026650;28;19936;-81
2022/07/02 00:13:09;;;;;;;;;;;14.50;99.90;;;;;;5010328;28;20010;-82
2022/07/02 00:15:35;;;;;;;;;;;14.50;99.90;;;;;;5003685;28;19951;-82
2022/07/02 00:18:01;;;;;;;;;;;14.30;99.90;;;;;;5010713;28;20398;-81
2022/07/02 00:20:27;;;;;;;;;;;14.40;99.90;;;;;;5005277;28;20077;-81
2022/07/02 00:22:54;;;;;;;;;;;14.50;99.90;;;;;;5004074;28;19928;-81
2022/07/02 00:25:19;;;;;;;;;;;14.50;99.90;;;;;;5001034;28;20002;-81
2022/07/02 00:27:45;;;;;;;;;;;14.50;99.90;;;;;;5005009;28;19929;-81
2022/07/02 00:30:12;;;;;;;;;;;14.40;99.90;;;;;;4999094;28;20358;-82
2022/07/02 00:32:45;;;;;;;;;;;14.50;99.90;;;;;;5008150;28;19955;-82
2022/07/02 00:35:14;;;;;;;;;;;14.50;99.90;;;;;;5007954;28;19998;-81
2022/07/02 00:37:39;;;;;;;;;;;14.60;99.90;;;;;;5005840;28;19989;-82
2022/07/02 00:40:06;;;;;;;;;;;14.60;99.90;;;;;;5009900;28;19929;-82
2022/07/02 00:42:34;;;;;;;;;;;14.50;99.90;;;;;;5003164;28;20009;-81
2022/07/02 00:45:00;;;;;;;;;;;14.50;99.90;;;;;;5001104;28;19935;-82
2022/07/02 00:47:27;;;;;;;;;;;14.40;99.90;;;;;;5003979;28;20828;-82
2022/07/02 00:49:53;;;;;;;;;;;14.30;99.90;;;;;;5004057;28;19932;-82
2022/07/02 00:52:18;;;;;;;;;;;14.30;99.90;;;;;;5005001;28;19936;-82
2022/07/02 00:54:44;;;;;;;;;;;14.20;99.90;;;;;;5010865;28;19925;-81
2022/07/02 00:57:10;;;;;;;;;;;14.20;99.90;;;;;;5000796;28;19929;-82
2022/07/02 00:59:36;;;;;;;;;;;14.20;99.90;;;;;;4999897;28;19934;-82
2022/07/02 01:02:04;;;;;;;;;;;14.20;99.90;;;;;;5006135;28;19948;-80
2022/07/02 01:04:32;;;;;;;;;;;14.20;99.90;;;;;;5006817;28;20015;-82
2022/07/02 01:07:07;;;;;;;;;;;14.10;99.90;;;;;;5007010;28;19929;-81
2022/07/02 01:12:24;;;;;;;;;;;14.20;99.90;;;;;;5008898;28;20595;-81
2022/07/02 01:14:54;;;;;;;;;;;14.20;99.90;;;;;;5004666;28;19940;-81
2022/07/02 01:17:19;;;;;;;;;;;14.20;99.90;;;;;;5018086;28;19938;-82
2022/07/02 01:19:45;;;;;;;;;;;14.20;99.90;;;;;;5005126;28;19928;-82
2022/07/02 01:22:21;;;;;;;;;;;14.20;99.90;;;;;;5027770;28;20301;-81
2022/07/02 01:24:48;;;;;;;;;;;14.10;99.90;;;;;;5027263;28;20090;-81
2022/07/02 01:27:14;;;;;;;;;;;14.10;99.90;;;;;;5008545;28;20420;-81
2022/07/02 01:29:40;;;;;;;;;;;14.20;99.90;;;;;;5021530;28;19929;-82
2022/07/02 01:32:06;;;;;;;;;;;14.00;99.90;;;;;;5025738;28;20306;-83
2022/07/02 01:34:33;;;;;;;;;;;14.00;99.90;;;;;;5027903;28;20639;-81
2022/07/02 01:36:59;;;;;;;;;;;14.00;99.90;;;;;;5019206;28;19924;-82
2022/07/02 01:39:25;;;;;;;;;;;14.10;99.90;;;;;;5022648;28;19950;-82
2022/07/02 01:41:50;;;;;;;;;;;14.10;99.90;;;;;;5020332;28;20517;-82
2022/07/02 01:44:16;;;;;;;;;;;13.90;99.90;;;;;;5005151;28;19970;-82
2022/07/02 01:46:43;;;;;;;;;;;13.90;99.90;;;;;;5021564;28;19935;-82
2022/07/02 01:49:09;;;;;;;;;;;13.80;99.90;;;;;;5021192;28;20798;-81
2022/07/02 01:51:35;;;;;;;;;;;13.80;99.90;;;;;;5032110;28;19946;-82
2022/07/02 01:54:01;;;;;;;;;;;13.70;99.90;;;;;;5016548;28;20949;-82
2022/07/02 01:56:30;;;;;;;;;;;13.80;99.90;;;;;;4999022;28;20018;-82
2022/07/02 01:58:55;;;;;;;;;;;13.80;99.90;;;;;;5036423;28;20296;-82
2022/07/02 02:01:21;;;;;;;;;;;13.80;99.90;;;;;;5015551;28;19932;-81
2022/07/02 02:03:47;;;;;;;;;;;13.80;99.90;;;;;;5020619;28;19939;-82
2022/07/02 02:06:12;;;;;;;;;;;13.80;99.90;;;;;;4998272;28;19971;-81
2022/07/02 02:08:38;;;;;;;;;;;13.90;99.90;;;;;;5015925;28;19936;-82
2022/07/02 02:11:04;;;;;;;;;;;13.90;99.90;;;;;;5032714;28;19928;-81
2022/07/02 02:13:29;;;;;;;;;;;13.90;99.90;;;;;;5011376;28;19928;-82
2022/07/02 02:15:55;;;;;;;;;;;13.90;99.90;;;;;;5029034;28;20046;-82
2022/07/02 02:18:21;;;;;;;;;;;13.80;99.90;;;;;;5012712;28;20472;-82
2022/07/02 02:20:47;;;;;;;;;;;13.80;99.90;;;;;;5008822;28;19933;-82
2022/07/02 02:23:12;;;;;;;;;;;13.70;99.90;;;;;;5029499;28;20404;-82
2022/07/02 02:25:38;;;;;;;;;;;13.70;99.90;;;;;;5036880;28;19928;-82
2022/07/02 02:28:04;;;;;;;;;;;13.70;99.90;;;;;;5038305;28;19936;-82
2022/07/02 02:30:30;;;;;;;;;;;13.70;99.90;;;;;;5036327;28;19954;-83
2022/07/02 02:32:56;;;;;;;;;;;13.70;99.90;;;;;;5019046;28;19929;-82
2022/07/02 02:35:21;;;;;;;;;;;13.60;99.90;;;;;;5019201;28;20270;-82
2022/07/02 02:37:47;;;;;;;;;;;13.70;99.90;;;;;;5017952;28;20191;-82
2022/07/02 02:40:13;;;;;;;;;;;13.70;99.90;;;;;;5038471;28;20252;-82
2022/07/02 02:42:38;;;;;;;;;;;13.80;99.90;;;;;;5035822;28;19938;-82
2022/07/02 02:45:04;;;;;;;;;;;13.70;99.90;;;;;;5039526;28;19959;-82
2022/07/02 02:47:30;;;;;;;;;;;13.70;99.90;;;;;;5035387;28;19928;-82
2022/07/02 02:49:55;;;;;;;;;;;13.70;99.90;;;;;;5017897;28;20374;-81
2022/07/02 02:52:21;;;;;;;;;;;13.70;99.90;;;;;;5038665;28;19932;-82
2022/07/02 02:54:47;;;;;;;;;;;13.60;99.90;;;;;;5044141;28;19936;-82
2022/07/02 02:57:13;;;;;;;;;;;13.60;99.90;;;;;;5044244;28;19932;-82
2022/07/02 02:59:38;;;;;;;;;;;13.60;99.90;;;;;;5043871;28;19981;-82
2022/07/02 03:02:04;;;;;;;;;;;13.60;99.90;;;;;;5048232;28;19928;-83
2022/07/02 03:04:30;;;;;;;;;;;13.50;99.90;;;;;;5028903;28;20084;-82
2022/07/02 03:06:56;;;;;;;;;;;13.50;99.90;;;;;;5041987;28;19938;-81
2022/07/02 03:09:21;;;;;;;;;;;13.50;99.90;;;;;;5028500;28;20731;-82
2022/07/02 03:11:47;;;;;;;;;;;13.50;99.90;;;;;;5027275;28;19928;-82
2022/07/02 03:14:13;;;;;;;;;;;13.50;99.90;;;;;;5040393;28;20028;-82
2022/07/02 03:16:38;;;;;;;;;;;13.50;99.90;;;;;;5027079;28;20473;-83
2022/07/02 03:19:04;;;;;;;;;;;13.50;99.90;;;;;;5003945;28;20302;-82
2022/07/02 03:21:30;;;;;;;;;;;13.50;99.90;;;;;;5050360;28;20018;-83
2022/07/02 03:23:56;;;;;;;;;;;13.50;99.90;;;;;;5024162;28;20587;-83
2022/07/02 03:26:21;;;;;;;;;;;13.50;99.90;;;;;;5017922;28;19928;-82
2022/07/02 03:28:47;;;;;;;;;;;13.50;99.90;;;;;;5024987;28;19929;-81
2022/07/02 03:31:13;;;;;;;;;;;13.50;99.90;;;;;;5042016;28;20942;-81
2022/07/02 03:33:38;;;;;;;;;;;13.50;99.90;;;;;;5040209;28;20931;-81
2022/07/02 03:36:04;;;;;;;;;;;13.50;99.90;;;;;;5020856;28;20040;-82
2022/07/02 03:38:30;;;;;;;;;;;13.50;99.90;;;;;;5040809;28;19928;-82
2022/07/02 03:40:56;;;;;;;;;;;13.40;99.90;;;;;;5037715;28;19939;-81
2022/07/02 03:43:21;;;;;;;;;;;13.40;99.90;;;;;;5033507;28;20627;-81
2022/07/02 03:45:47;;;;;;;;;;;13.30;99.90;;;;;;5041559;28;19931;-81
2022/07/02 03:48:13;;;;;;;;;;;13.30;99.90;;;;;;5015070;28;20477;-82
2022/07/02 03:50:40;;;;;;;;;;;13.30;99.90;;;;;;5014982;28;20324;-82
2022/07/02 03:53:06;;;;;;;;;;;13.20;99.90;;;;;;5034238;28;19933;-81
2022/07/02 03:55:32;;;;;;;;;;;13.30;99.90;;;;;;5023736;28;20391;-82
2022/07/02 03:57:57;;;;;;;;;;;13.30;99.90;;;;;;5046896;28;20005;-81
2022/07/02 04:00:23;;;;;;;;;;;13.20;99.90;;;;;;5038027;28;19928;-81
2022/07/02 04:02:49;;;;;;;;;;;13.20;99.90;;;;;;5019075;28;19932;-81
2022/07/02 04:05:15;;;;;;;;;;;13.20;99.90;;;;;;5038039;28;20047;-82
2022/07/02 04:07:40;;;;;;;;;;;13.30;99.90;;;;;;5043355;28;19989;-81
2022/07/02 04:10:07;;;;;;;;;;;13.40;99.90;;;;;;5035085;28;19951;-82
2022/07/02 04:12:33;;;;;;;;;;;13.30;99.90;;;;;;5025658;28;19975;-81
2022/07/02 04:14:59;;;;;;;;;;;13.40;99.90;;;;;;5018642;28;20019;-80
2022/07/02 04:17:25;;;;;;;;;;;13.40;99.90;;;;;;5015861;28;19928;-80
2022/07/02 04:19:51;;;;;;;;;;;13.40;99.90;;;;;;5038073;28;19957;-82
2022/07/02 04:22:16;;;;;;;;;;;13.40;99.90;;;;;;5039925;28;20398;-81
2022/07/02 04:24:42;;;;;;;;;;;13.50;99.90;;;;;;5017239;28;19947;-81
2022/07/02 04:27:08;;;;;;;;;;;13.50;99.90;;;;;;5001771;28;19955;-80
2022/07/02 04:29:33;;;;;;;;;;;13.60;99.90;;;;;;5038219;28;20151;-81
2022/07/02 04:31:59;;;;;;;;;;;13.60;99.90;;;;;;5019701;28;19977;-80
2022/07/02 04:34:25;;;;;;;;;;;13.60;99.90;;;;;;5017258;28;19932;-81
2022/07/02 04:36:52;;;;;;;;;;;13.70;99.90;;;;;;5021952;28;19985;-80
2022/07/02 04:39:17;;;;;;;;;;;13.80;99.90;;;;;;5015292;28;19928;-84
2022/07/02 04:41:43;;;;;;;;;;;13.80;99.90;;;;;;5033903;28;19982;-83
2022/07/02 04:44:09;;;;;;;;;;;13.90;99.90;;;;;;5032671;28;19928;-82
2022/07/02 04:46:35;;;;;;;;;;;15.20;99.90;;;;;;5014753;28;19928;-81
2022/07/02 04:49:00;;;;;;;;;;;16.40;99.90;;;;;;5015457;28;19939;-81
2022/07/02 04:51:26;;;;;;;;;;;18.20;99.90;;;;;;5016828;28;19985;-81
2022/07/02 04:53:52;;;;;;;;;;;19.20;99.90;;;;;;4995496;28;19928;-81
2022/07/02 04:56:17;;;;;;;;;;;20.80;99.90;;;;;;5037694;28;19928;-84
2022/07/02 04:58:43;;;;;;;;;;;21.40;99.90;;;;;;5041598;28;20400;-81
2022/07/02 05:01:10;;;;;;;;;;;21.90;99.90;;;;;;5019324;28;19978;-83
2022/07/02 05:03:35;;;;;;;;;;;22.30;99.90;;;;;;5025829;28;20625;-82
2022/07/02 05:06:01;;;;;;;;;;;22.60;99.90;;;;;;5019201;28;19932;-83
2022/07/02 05:08:27;;;;;;;;;;;23.10;99.90;;;;;;5019152;28;21058;-82
2022/07/02 05:10:53;;;;;;;;;;;23.10;99.90;;;;;;5038350;28;19928;-82
2022/07/02 05:13:19;;;;;;;;;;;23.50;99.90;;;;;;5039188;28;20217;-82
2022/07/02 05:15:45;;;;;;;;;;;23.90;99.90;;;;;;5022646;28;19928;-83
2022/07/02 05:18:11;;;;;;;;;;;24.20;99.90;;;;;;5013711;28;19924;-83
2022/07/02 05:20:37;;;;;;;;;;;24.40;99.90;;;;;;5032325;28;19935;-83
2022/07/02 05:23:02;;;;;;;;;;;24.90;99.90;;;;;;5020965;28;19928;-84
2022/07/02 05:25:28;;;;;;;;;;;24.80;99.90;;;;;;5030637;28;19963;-82
2022/07/02 05:27:54;;;;;;;;;;;24.90;99.90;;;;;;5034176;28;19956;-82
2022/07/02 05:30:20;;;;;;;;;;;24.40;99.90;;;;;;5036424;28;19936;-81
2022/07/02 05:32:45;;;;;;;;;;;24.50;99.90;;;;;;5019284;28;19928;-81
2022/07/02 05:35:11;;;;;;;;;;;25.20;99.90;;;;;;5017359;28;20417;-82
2022/07/02 05:37:37;;;;;;;;;;;25.40;99.90;;;;;;5041329;28;20770;-82
2022/07/02 05:40:03;;;;;;;;;;;25.40;99.90;;;;;;5031696;28;20300;-82
2022/07/02 05:42:29;;;;;;;;;;;25.20;99.90;;;;;;5038628;28;19928;-82
2022/07/02 05:44:54;;;;;;;;;;;26.00;99.90;;;;;;5035630;28;19924;-81
2022/07/02 05:47:20;;;;;;;;;;;24.90;99.90;;;;;;5037511;28;19935;-85
2022/07/02 05:49:46;;;;;;;;;;;24.20;99.90;;;;;;5018809;28;19924;-81
2022/07/02 05:52:11;;;;;;;;;;;22.50;99.90;;;;;;5015715;28;20568;-82
2022/07/02 05:54:37;;;;;;;;;;;21.80;99.90;;;;;;5002606;28;19928;-82
2022/07/02 05:57:03;;;;;;;;;;;21.40;99.90;;;;;;5034067;28;19928;-82
2022/07/02 05:59:29;;;;;;;;;;;21.40;99.90;;;;;;5035304;28;19971;-79
2022/07/02 06:01:54;;;;;;;;;;;22.00;99.90;;;;;;5028976;28;19932;-81
2022/07/02 06:04:20;;;;;;;;;;;21.40;99.90;;;;;;5034574;28;20477;-83
2022/07/02 06:09:30;;;;;;;;;;;20.80;99.90;;;;;;5033242;28;19928;-82
2022/07/02 06:12:00;;;;;;;;;;;20.80;99.90;;;;;;5024074;28;20645;-83
2022/07/02 06:14:26;;;;;;;;;;;20.70;99.90;;;;;;5032216;28;21203;-82
2022/07/02 06:16:52;;;;;;;;;;;20.90;99.90;;;;;;5026192;28;20031;-82
2022/07/02 06:19:18;;;;;;;;;;;21.00;99.90;;;;;;5036859;28;20707;-81
2022/07/02 06:21:43;;;;;;;;;;;20.80;99.90;;;;;;5035405;28;19924;-81
2022/07/02 06:24:11;;;;;;;;;;;20.80;99.90;;;;;;5013138;28;19993;-83
2022/07/02 06:26:36;;;;;;;;;;;21.40;99.90;;;;;;5015291;28;19994;-83
2022/07/02 06:29:02;;;;;;;;;;;21.30;99.90;;;;;;5032753;28;19931;-84
2022/07/02 06:31:28;;;;;;;;;;;21.20;99.90;;;;;;5015973;28;20055;-85
2022/07/02 06:33:54;;;;;;;;;;;20.80;99.90;;;;;;5018793;28;19943;-83
2022/07/02 06:36:22;;;;;;;;;;;20.80;99.90;;;;;;5019772;28;19935;-80
2022/07/02 06:38:48;;;;;;;;;;;21.30;99.90;;;;;;5042778;28;20915;-83
2022/07/02 06:42:18;;;;;;;;;;;20.80;99.90;;;;;;5038167;28;20031;-82
2022/07/02 06:44:00;;;;;;;;;;;20.80;99.90;;;;;;5022712;28;20452;-84
2022/07/02 06:46:26;;;;;;;;;;;19.60;99.90;;;;;;5023274;28;19967;-79
2022/07/02 06:48:52;;;;;;;;;;;19.20;99.90;;;;;;5021962;28;19979;-80
2022/07/02 06:51:17;;;;;;;;;;;19.70;99.90;;;;;;5044102;28;20015;-84
2022/07/02 06:53:43;;;;;;;;;;;20.10;99.90;;;;;;5002542;28;19977;-83
2022/07/02 06:56:09;;;;;;;;;;;20.40;99.90;;;;;;5023384;28;20043;-82
2022/07/02 06:58:34;;;;;;;;;;;21.00;99.90;;;;;;5030997;28;20436;-83
2022/07/02 07:01:00;;;;;;;;;;;20.50;99.90;;;;;;5046259;28;20443;-83
2022/07/02 07:03:26;;;;;;;;;;;21.10;99.90;;;;;;5023836;28;20367;-82
2022/07/02 07:05:52;;;;;;;;;;;21.30;99.90;;;;;;5022131;28;20363;-82
2022/07/02 07:08:17;;;;;;;;;;;21.40;99.90;;;;;;5026486;28;19928;-83
2022/07/02 07:10:43;;;;;;;;;;;21.60;99.90;;;;;;5046027;28;19932;-83
2022/07/02 07:13:09;;;;;;;;;;;21.80;99.90;;;;;;5023110;28;20043;-83
2022/07/02 07:15:35;;;;;;;;;;;21.90;99.90;;;;;;5022368;28;19935;-82
2022/07/02 07:18:00;;;;;;;;;;;22.00;99.90;;;;;;5036444;28;20033;-82
2022/07/02 07:20:32;;;;;;;;;;;22.20;99.90;;;;;;5032477;28;19935;-83
2022/07/02 07:22:59;;;;;;;;;;;22.20;99.90;;;;;;5040130;28;19935;-80
2022/07/02 07:25:25;;;;;;;;;;;21.60;99.90;;;;;;5039573;28;20693;-81
2022/07/02 07:27:51;;;;;;;;;;;22.10;99.90;;;;;;5024525;28;20055;-83
2022/07/02 07:30:16;;;;;;;;;;;22.00;99.90;;;;;;5022757;28;19928;-83
2022/07/02 07:32:42;;;;;;;;;;;22.00;99.90;;;;;;5022939;28;20014;-81
2022/07/02 07:35:08;;;;;;;;;;;21.80;99.90;;;;;;5032124;28;20283;-80
2022/07/02 07:37:37;;;;;;;;;;;22.20;99.90;;;;;;5038407;28;19925;-82
2022/07/02 07:40:03;;;;;;;;;;;22.20;99.90;;;;;;5036227;28;19928;-82
2022/07/02 07:42:29;;;;;;;;;;;22.20;99.90;;;;;;5043297;28;20029;-85
2022/07/02 07:44:55;;;;;;;;;;;22.20;99.90;;;;;;5039646;28;19928;-83
2022/07/02 07:47:20;;;;;;;;;;;22.20;99.90;;;;;;5017289;28;19928;-85
2022/07/02 07:49:46;;;;;;;;;;;22.30;99.90;;;;;;5021949;28;20501;-85
2022/07/02 07:52:12;;;;;;;;;;;22.30;99.90;;;;;;5019077;28;19928;-81
2022/07/02 07:54:37;;;;;;;;;;;22.80;99.90;;;;;;5036856;28;19936;-84
2022/07/02 07:57:04;;;;;;;;;;;22.60;99.90;;;;;;5027993;28;19929;-84
2022/07/02 07:59:29;;;;;;;;;;;22.50;99.90;;;;;;5036625;28;19935;-84
2022/07/02 08:01:55;;;;;;;;;;;22.50;99.90;;;;;;5025468;28;19924;-85
2022/07/02 08:04:21;;;;;;;;;;;22.80;99.90;;;;;;5033948;28;19975;-83
2022/07/02 08:06:47;;;;;;;;;;;22.70;99.90;;;;;;5010046;28;20130;-87
2022/07/02 08:09:13;;;;;;;;;;;22.60;99.90;;;;;;5015296;28;19932;-85
2022/07/02 08:11:38;;;;;;;;;;;22.90;99.90;;;;;;5009742;28;20310;-89
2022/07/02 08:14:04;;;;;;;;;;;22.70;99.90;;;;;;5036429;28;19935;-84
2022/07/02 08:16:30;;;;;;;;;;;22.60;99.90;;;;;;5033037;28;19936;-83
2022/07/02 08:18:56;;;;;;;;;;;22.60;99.90;;;;;;5023029;28;19932;-85
2022/07/02 08:21:22;;;;;;;;;;;23.00;99.90;;;;;;4966441;28;1982870;-87
2022/07/02 08:23:48;;;;;;;;;;;23.00;99.90;;;;;;5023461;28;19929;-84
2022/07/02 08:26:13;;;;;;;;;;;23.00;99.90;;;;;;5034222;28;19975;-81
2022/07/02 08:28:39;;;;;;;;;;;22.70;99.90;;;;;;5035853;28;19975;-84
2022/07/02 08:31:05;;;;;;;;;;;22.70;99.90;;;;;;5033970;28;19982;-84
2022/07/02 08:33:31;;;;;;;;;;;22.70;99.90;;;;;;5017986;28;19928;-82
2022/07/02 08:35:56;;;;;;;;;;;22.50;99.90;;;;;;5027398;28;20015;-86
2022/07/02 08:38:22;;;;;;;;;;;22.50;99.90;;;;;;5015646;28;19958;-86
2022/07/02 08:40:48;;;;;;;;;;;22.40;99.90;;;;;;5043782;28;20416;-83
2022/07/02 08:43:15;;;;;;;;;;;22.70;99.90;;;;;;5019155;28;19954;-83
2022/07/02 08:45:44;;;;;;;;;;;22.90;99.90;;;;;;5020865;28;19932;-85
2022/07/02 08:48:10;;;;;;;;;;;23.00;99.90;;;;;;5022213;28;20353;-85
2022/07/02 08:50:37;;;;;;;;;;;23.20;99.90;;;;;;5022977;28;19932;-85
2022/07/02 08:53:03;;;;;;;;;;;23.30;99.90;;;;;;5023466;28;19924;-84
2022/07/02 08:55:31;;;;;;;;;;;23.40;99.90;;;;;;5001118;28;19966;-82
2022/07/02 08:57:58;;;;;;;;;;;23.30;99.90;;;;;;5023878;28;19928;-86
2022/07/02 09:00:24;;;;;;;;;;;23.60;99.90;;;;;;5024156;28;19928;-86
2022/07/02 09:02:53;;;;;;;;;;;23.50;99.90;;;;;;5034466;28;19989;-85
2022/07/02 09:05:22;;;;;;;;;;;23.30;99.90;;;;;;5012783;28;20313;-85
2022/07/02 09:07:48;;;;;;;;;;;23.50;99.90;;;;;;5037838;28;19928;-86
2022/07/02 09:10:17;;;;;;;;;;;23.70;99.90;;;;;;5004773;28;19977;-87
2022/07/02 09:12:45;;;;;;;;;;;23.70;99.90;;;;;;5027655;28;19928;-86
2022/07/02 09:15:11;;;;;;;;;;;23.70;99.90;;;;;;5020703;28;19936;-83
2022/07/02 09:17:39;;;;;;;;;;;24.00;99.90;;;;;;5038872;28;19939;-84
2022/07/02 09:20:05;;;;;;;;;;;24.10;99.90;;;;;;5035267;28;19979;-90
2022/07/02 09:22:35;;;;;;;;;;;24.10;99.90;;;;;;5023144;28;19936;-86
2022/07/02 09:25:08;;;;;;;;;;;23.90;99.90;;;;;;5017931;28;19932;-83
2022/07/02 09:27:34;;;;;;;;;;;24.10;99.90;;;;;;5018128;28;19936;-87
2022/07/02 09:30:00;;;;;;;;;;;24.00;99.90;;;;;;5000035;28;19932;-86
2022/07/02 09:32:26;;;;;;;;;;;24.50;99.90;;;;;;4997303;28;19935;-83
2022/07/02 09:34:52;;;;;;;;;;;24.60;99.90;;;;;;5010824;28;19939;-83
2022/07/02 09:37:22;;;;;;;;;;;24.60;99.90;;;;;;5027576;28;19928;-85
2022/07/02 09:39:49;;;;;;;;;;;24.80;99.90;;;;;;5031762;28;20339;-81
2022/07/02 09:42:27;;;;;;;;;;;24.60;99.90;;;;;;5032532;28;20564;-84
2022/07/02 09:44:53;;;;;;;;;;;24.30;99.90;;;;;;5010399;28;20020;-86
2022/07/02 09:47:34;;;;;;;;;;;24.70;99.90;;;;;;5009009;28;20527;-86
2022/07/02 09:50:02;;;;;;;;;;;24.70;99.90;;;;;;5009335;28;19932;-85
2022/07/02 09:52:27;;;;;;;;;;;24.20;99.90;;;;;;4995818;28;19932;-85
2022/07/02 09:54:53;;;;;;;;;;;23.80;99.90;;;;;;5006831;28;19928;-83
2022/07/02 09:57:19;;;;;;;;;;;24.40;99.90;;;;;;5007423;28;20015;-87
2022/07/02 09:59:45;;;;;;;;;;;23.90;99.90;;;;;;5004602;28;19986;-83
2022/07/02 10:02:19;;;;;;;;;;;23.40;99.90;;;;;;5007873;28;20508;-85
2022/07/02 10:04:45;;;;;;;;;;;23.70;99.90;;;;;;5025805;28;20290;-83
2022/07/02 10:07:10;;;;;;;;;;;24.50;99.90;;;;;;5020369;28;19928;-84
2022/07/02 10:09:39;;;;;;;;;;;24.30;99.90;;;;;;4995754;28;19933;-83
2022/07/02 10:12:06;;;;;;;;;;;24.30;99.90;;;;;;5002426;28;21008;-82
2022/07/02 10:14:34;;;;;;;;;;;25.00;99.90;;;;;;5025106;28;19932;-84
2022/07/02 10:17:01;;;;;;;;;;;25.10;99.90;;;;;;5006547;28;19928;-86
2022/07/02 10:19:28;;;;;;;;;;;25.40;99.90;;;;;;5025654;28;19994;-86
2022/07/02 10:21:54;;;;;;;;;;;25.70;99.90;;;;;;5008038;28;19928;-86
2022/07/02 10:24:22;;;;;;;;;;;25.60;99.90;;;;;;5004506;28;19973;-84
2022/07/02 10:26:47;;;;;;;;;;;25.90;99.90;;;;;;5024387;28;20400;-83
2022/07/02 10:29:14;;;;;;;;;;;25.50;99.90;;;;;;5018819;28;19928;-86
2022/07/02 10:31:44;;;;;;;;;;;26.30;99.90;;;;;;5005269;28;20023;-86
2022/07/02 10:34:28;;;;;;;;;;;26.20;99.90;;;;;;5024788;28;19924;-84
2022/07/02 10:36:54;;;;;;;;;;;26.20;99.90;;;;;;5005783;28;19935;-84
2022/07/02 10:39:20;;;;;;;;;;;26.70;99.90;;;;;;4996844;28;20719;-86
2022/07/02 10:41:45;;;;;;;;;;;26.70;99.90;;;;;;4996719;28;19962;-85
2022/07/02 10:44:11;;;;;;;;;;;26.50;99.90;;;;;;5017858;28;20585;-82
2022/07/02 10:46:37;;;;;;;;;;;25.60;99.90;;;;;;5032539;28;20681;-87
2022/07/02 10:49:05;;;;;;;;;;;25.10;99.90;;;;;;5013465;28;20478;-85
2022/07/02 10:51:35;;;;;;;;;;;25.40;99.90;;;;;;5015958;28;20393;-86
2022/07/02 10:54:03;;;;;;;;;;;25.00;99.90;;;;;;5013029;28;19939;-87
2022/07/02 10:56:29;;;;;;;;;;;24.50;99.90;;;;;;4999926;28;19928;-86
2022/07/02 10:58:55;;;;;;;;;;;24.10;99.90;;;;;;5015901;28;20377;-85
2022/07/02 11:01:21;;;;;;;;;;;23.80;99.90;;;;;;5032086;28;19928;-84
2022/07/02 11:03:53;;;;;;;;;;;23.90;99.90;;;;;;5013653;28;19950;-83
2022/07/02 11:06:29;;;;;;;;;;;23.60;99.90;;;;;;5018482;28;19963;-84
2022/07/02 11:09:07;;;;;;;;;;;23.40;99.90;;;;;;5021599;28;19928;-84
2022/07/02 11:11:34;;;;;;;;;;;23.50;99.90;;;;;;5013302;28;19935;-83
2022/07/02 11:14:02;;;;;;;;;;;23.40;99.90;;;;;;5038152;28;19928;-85
2022/07/02 11:16:31;;;;;;;;;;;23.50;99.90;;;;;;5043005;28;19936;-84
2022/07/02 11:19:00;;;;;;;;;;;23.70;99.90;;;;;;5025923;28;19928;-85
2022/07/02 11:21:29;;;;;;;;;;;24.60;99.90;;;;;;5019356;28;19959;-84
2022/07/02 11:23:55;;;;;;;;;;;24.90;99.90;;;;;;5023711;28;19928;-84
2022/07/02 11:26:22;;;;;;;;;;;24.20;99.90;;;;;;5024143;28;20429;-85
2022/07/02 11:28:48;;;;;;;;;;;23.50;99.90;;;;;;5004663;28;20258;-82
2022/07/02 11:31:14;;;;;;;;;;;23.40;99.90;;;;;;5012760;28;19936;-85
2022/07/02 11:33:46;;;;;;;;;;;23.10;99.90;;;;;;5011507;28;20485;-86
2022/07/02 11:36:12;;;;;;;;;;;24.30;99.90;;;;;;5012714;28;20411;-84
2022/07/02 11:38:38;;;;;;;;;;;24.50;99.90;;;;;;5016774;28;19988;-84
2022/07/02 11:41:16;;;;;;;;;;;24.00;99.90;;;;;;5023533;28;20485;-84
2022/07/02 11:43:44;;;;;;;;;;;23.90;99.90;;;;;;5045159;28;19932;-85
2022/07/02 11:46:13;;;;;;;;;;;23.80;99.90;;;;;;5042678;28;19971;-85
2022/07/02 11:48:39;;;;;;;;;;;23.50;99.90;;;;;;5021728;28;19982;-84
2022/07/02 11:51:05;;;;;;;;;;;23.50;99.90;;;;;;5021625;28;19928;-83
2022/07/02 11:53:31;;;;;;;;;;;23.40;99.90;;;;;;5029769;28;20011;-85
2022/07/02 11:56:23;;;;;;;;;;;24.30;99.90;;;;;;5006937;28;20040;-87
2022/07/02 11:58:49;;;;;;;;;;;25.30;99.90;;;;;;5033597;28;20254;-81
2022/07/02 12:01:22;;;;;;;;;;;25.70;99.90;;;;;;5040556;28;20149;-84
2022/07/02 12:03:48;;;;;;;;;;;25.40;99.90;;;;;;5005706;28;19967;-83
2022/07/02 12:06:14;;;;;;;;;;;25.60;99.90;;;;;;5024815;28;19932;-83
2022/07/02 12:08:40;;;;;;;;;;;25.80;99.90;;;;;;5014863;28;19936;-84
2022/07/02 12:11:17;;;;;;;;;;;25.60;99.90;;;;;;5039065;28;19989;-84
2022/07/02 12:13:43;;;;;;;;;;;25.20;99.90;;;;;;5024635;28;19934;-85
2022/07/02 12:16:12;;;;;;;;;;;25.20;99.90;;;;;;5019338;28;19936;-83
2022/07/02 12:18:39;;;;;;;;;;;25.40;99.90;;;;;;5015456;28;19933;-84
2022/07/02 12:21:16;;;;;;;;;;;25.50;99.90;;;;;;5003991;28;19933;-84
2022/07/02 12:23:49;;;;;;;;;;;25.30;99.90;;;;;;5035982;28;20718;-83
2022/07/02 12:26:18;;;;;;;;;;;24.80;99.90;;;;;;5039740;28;19935;-83
2022/07/02 12:31:52;;;;;;;;;;;24.40;99.90;;;;;;5020261;28;19975;-83
2022/07/02 12:34:19;;;;;;;;;;;25.30;99.90;;;;;;5036457;28;19928;-84
2022/07/02 12:36:53;;;;;;;;;;;25.10;99.90;;;;;;5034254;28;19982;-83
2022/07/02 12:39:19;;;;;;;;;;;24.70;99.90;;;;;;5035130;28;19932;-84
2022/07/02 12:41:45;;;;;;;;;;;24.50;99.90;;;;;;5018914;28;20449;-86
2022/07/02 12:44:21;;;;;;;;;;;24.30;99.90;;;;;;5019738;28;19928;-84
2022/07/02 12:46:51;;;;;;;;;;;24.00;99.90;;;;;;5035031;28;20624;-83
2022/07/02 12:49:17;;;;;;;;;;;24.40;99.90;;;;;;5033120;28;19931;-83
2022/07/02 12:51:50;;;;;;;;;;;25.30;99.90;;;;;;5040916;28;20341;-83
2022/07/02 12:54:16;;;;;;;;;;;24.80;99.90;;;;;;5021601;28;20180;-82
2022/07/02 12:56:41;;;;;;;;;;;24.80;99.90;;;;;;5038229;28;19933;-82
2022/07/02 12:59:07;;;;;;;;;;;24.90;99.90;;;;;;5035301;28;20091;-84
2022/07/02 13:01:33;;;;;;;;;;;25.10;99.90;;;;;;5018502;28;20023;-83
2022/07/02 13:03:58;;;;;;;;;;;25.70;99.90;;;;;;5019273;28;19936;-85
2022/07/02 13:06:25;;;;;;;;;;;25.40;99.90;;;;;;5037285;28;19932;-81
2022/07/02 13:08:51;;;;;;;;;;;25.30;99.90;;;;;;5017444;28;19928;-85
2022/07/02 13:11:16;;;;;;;;;;;25.10;99.90;;;;;;5041947;28;19935;-84
2022/07/02 13:13:42;;;;;;;;;;;24.90;99.90;;;;;;5040621;28;19995;-84
2022/07/02 13:16:08;;;;;;;;;;;24.80;99.90;;;;;;5039459;28;20309;-82
2022/07/02 13:18:33;;;;;;;;;;;25.10;99.90;;;;;;5019753;28;19936;-82
2022/07/02 13:20:59;;;;;;;;;;;24.90;99.90;;;;;;5018057;28;20011;-82
2022/07/02 13:23:25;;;;;;;;;;;25.10;99.90;;;;;;5046177;28;19935;-83
2022/07/02 13:25:50;;;;;;;;;;;25.60;99.90;;;;;;5020122;28;19963;-84
2022/07/02 13:28:16;;;;;;;;;;;26.00;99.90;;;;;;5023247;28;19928;-83
2022/07/02 13:30:42;;;;;;;;;;;26.60;99.90;;;;;;5038353;28;19939;-84
2022/07/02 13:33:08;;;;;;;;;;;26.80;97.90;;;;;;5048965;28;19928;-83
2022/07/02 13:35:33;;;;;;;;;;;26.90;99.60;;;;;;5027401;28;19933;-84
2022/07/02 13:37:59;;;;;;;;;;;26.90;98.30;;;;;;5011607;28;19928;-85
2022/07/02 13:40:25;;;;;;;;;;;27.20;99.90;;;;;;5035621;28;19928;-83
2022/07/02 13:42:51;;;;;;;;;;;27.30;98.20;;;;;;5030212;28;20007;-83
2022/07/02 13:45:17;;;;;;;;;;;27.30;97.70;;;;;;5038637;28;19989;-82
2022/07/02 13:47:44;;;;;;;;;;;27.40;98.20;;;;;;5032152;28;19936;-82
2022/07/02 13:50:09;;;;;;;;;;;27.70;99.60;;;;;;5031905;28;20305;-81
2022/07/02 13:52:35;;;;;;;;;;;27.30;96.80;;;;;;5033276;28;19939;-83
2022/07/02 13:55:01;;;;;;;;;;;27.30;97.90;;;;;;5033546;28;20441;-83
2022/07/02 13:57:26;;;;;;;;;;;27.00;96.90;;;;;;5038166;28;19951;-81
2022/07/02 13:59:52;;;;;;;;;;;27.00;97.60;;;;;;5038311;28;20170;-82
2022/07/02 14:02:18;;;;;;;;;;;26.40;96.80;;;;;;5033383;28;20424;-84
2022/07/02 14:04:43;;;;;;;;;;;26.10;96.50;;;;;;5016365;28;19928;-84
2022/07/02 14:07:09;;;;;;;;;;;25.90;98.80;;;;;;5031870;28;20545;-81
2022/07/02 14:09:38;;;;;;;;;;;25.60;98.40;;;;;;5028522;28;19932;-83
2022/07/02 14:12:05;;;;;;;;;;;25.50;98.90;;;;;;5008849;28;19935;-83
2022/07/02 14:14:31;;;;;;;;;;;25.90;99.00;;;;;;5038034;28;19997;-84
2022/07/02 14:16:57;;;;;;;;;;;25.80;98.50;;;;;;5019373;28;19928;-84
2022/07/02 14:19:23;;;;;;;;;;;25.40;97.80;;;;;;5020092;28;19932;-84
2022/07/02 14:21:48;;;;;;;;;;;25.20;99.60;;;;;;5017811;28;20464;-83